createdAt,value
2023-04-14T00:00:29.961Z,0.94
2023-04-14T00:01:35.012Z,0.95
2023-04-14T00:02:37.576Z,0.90
2023-04-14T00:03:42.835Z,0.85
2023-04-14T00:04:52.274Z,0.82
2023-04-14T00:05:58.280Z,0.79
2023-04-14T00:07:00.877Z,0.75
2023-04-14T00:08:06.069Z,0.74
2023-04-14T00:09:08.435Z,0.75
2023-04-14T00:10:14.172Z,0.74
2023-04-14T00:11:16.881Z,0.72
2023-04-14T00:12:22.050Z,0.74
2023-04-14T00:13:24.657Z,0.73
2023-04-14T00:14:29.584Z,0.73
2023-04-14T00:15:34.562Z,0.73
2023-04-14T00:16:39.811Z,0.70
2023-04-14T00:19:37.332Z,0.62
2023-04-14T00:20:40.133Z,0.60
2023-04-14T00:21:45.182Z,0.57
2023-04-14T00:22:47.849Z,0.54
2023-04-14T00:23:53.485Z,0.50
2023-04-14T00:24:56.472Z,0.47
2023-04-14T00:26:02.010Z,0.46
2023-04-14T00:27:04.782Z,0.46
2023-04-14T00:28:10.204Z,0.45
2023-04-14T00:30:43.322Z,0.48
2023-04-14T00:31:46.033Z,0.50
2023-04-14T00:32:51.223Z,0.53
2023-04-14T00:33:53.769Z,0.57
2023-04-14T00:35:00.515Z,0.59
2023-04-14T00:36:03.333Z,0.66
2023-04-14T00:37:08.690Z,0.70
2023-04-14T00:38:11.794Z,0.76
2023-04-14T00:39:16.859Z,0.79
2023-04-14T00:40:19.340Z,0.85
2023-04-14T00:41:25.121Z,0.89
2023-04-14T00:42:27.851Z,0.91
2023-04-14T00:43:32.992Z,0.95
2023-04-14T00:44:35.736Z,0.99
2023-04-14T00:45:48.646Z,1.04
2023-04-14T00:46:51.933Z,1.08
2023-04-14T00:47:58.305Z,1.12
2023-04-14T00:49:02.203Z,1.16
2023-04-14T00:50:09.560Z,1.21
2023-04-14T00:52:54.996Z,1.28
2023-04-14T00:53:58.056Z,1.31
2023-04-14T00:55:05.685Z,1.34
2023-04-14T00:56:08.675Z,1.38
2023-04-14T00:57:14.579Z,1.42
2023-04-14T00:58:17.447Z,1.45
2023-04-14T00:59:23.075Z,1.46
2023-04-14T01:00:25.998Z,1.49
2023-04-14T01:01:36.767Z,1.51
2023-04-14T01:02:39.834Z,1.51
2023-04-14T01:03:45.826Z,1.52
2023-04-14T01:04:54.308Z,1.56
2023-04-14T01:06:00.406Z,1.59
2023-04-14T01:07:03.557Z,1.61
2023-04-14T01:08:09.108Z,1.64
2023-04-14T01:09:12.589Z,1.69
2023-04-14T01:10:18.560Z,1.69
2023-04-14T01:11:30.683Z,1.74
2023-04-14T01:12:52.827Z,1.76
2023-04-14T01:14:09.167Z,1.80
2023-04-14T01:15:21.346Z,1.82
2023-04-14T01:16:29.403Z,1.83
2023-04-14T01:17:47.829Z,1.84
2023-04-14T01:18:58.778Z,1.87
2023-04-14T01:20:23.534Z,1.90
2023-04-14T01:21:33.872Z,1.91
2023-04-14T01:22:43.913Z,1.94
2023-04-14T01:24:06.412Z,1.95
2023-04-14T01:25:42.400Z,1.96
2023-04-14T01:26:49.222Z,2.03
2023-04-14T01:28:06.060Z,2.01
2023-04-14T01:29:47.157Z,2.05
2023-04-14T01:31:06.818Z,2.08
2023-04-14T01:33:46.443Z,2.10
2023-04-14T01:34:54.603Z,2.11
2023-04-14T01:36:06.540Z,2.11
2023-04-14T01:37:17.484Z,2.11
2023-04-14T01:38:26.049Z,2.11
2023-04-14T01:39:37.946Z,2.10
2023-04-14T01:40:43.882Z,2.15
2023-04-14T01:41:53.132Z,2.12
2023-04-14T01:43:03.177Z,2.10
2023-04-14T01:44:11.486Z,2.09
2023-04-14T01:45:19.884Z,2.10
2023-04-14T01:46:25.266Z,2.10
2023-04-14T01:47:31.151Z,2.10
2023-04-14T01:48:36.733Z,2.08
2023-04-14T01:49:41.050Z,2.08
2023-04-14T01:50:47.483Z,2.09
2023-04-14T01:51:51.632Z,2.12
2023-04-14T01:52:58.170Z,2.12
2023-04-14T01:54:03.936Z,2.14
2023-04-14T01:55:12.088Z,2.17
2023-04-14T01:56:17.569Z,2.13
2023-04-14T01:57:24.143Z,2.10
2023-04-14T01:58:28.982Z,2.11
2023-04-14T01:59:37.140Z,2.10
2023-04-14T02:00:42.150Z,2.08
2023-04-14T02:01:50.146Z,2.10
2023-04-14T02:02:56.338Z,2.10
2023-04-14T02:04:03.219Z,2.09
2023-04-14T02:05:09.403Z,2.12
2023-04-14T02:06:17.216Z,2.09
2023-04-14T02:07:22.390Z,2.10
2023-04-14T02:08:28.703Z,2.14
2023-04-14T02:09:33.559Z,2.16
2023-04-14T02:10:41.984Z,2.10
2023-04-14T02:11:46.666Z,2.08
2023-04-14T02:12:56.529Z,2.09
2023-04-14T02:14:01.627Z,2.06
2023-04-14T02:15:12.910Z,2.09
2023-04-14T02:16:16.917Z,2.09
2023-04-14T02:17:24.655Z,2.12
2023-04-14T02:18:32.064Z,2.11
2023-04-14T02:19:38.815Z,2.09
2023-04-14T02:20:45.269Z,2.07
2023-04-14T02:21:52.796Z,2.13
2023-04-14T02:22:56.592Z,2.14
2023-04-14T02:24:02.025Z,2.13
2023-04-14T02:25:06.116Z,2.07
2023-04-14T02:26:16.384Z,2.08
2023-04-14T02:27:25.963Z,2.12
2023-04-14T02:28:35.671Z,2.07
2023-04-14T02:29:45.691Z,2.08
2023-04-14T02:30:52.789Z,2.05
2023-04-14T02:32:04.019Z,2.01
2023-04-14T02:33:10.681Z,1.99
2023-04-14T02:34:23.940Z,1.99
2023-04-14T02:35:30.112Z,1.98
2023-04-14T02:36:39.675Z,1.99
2023-04-14T02:37:45.491Z,1.98
2023-04-14T02:38:58.526Z,2.00
2023-04-14T02:40:33.843Z,2.00
2023-04-14T02:41:41.019Z,1.99
2023-04-14T02:42:52.031Z,2.00
2023-04-14T02:44:05.319Z,2.04
2023-04-14T02:45:16.763Z,2.04
2023-04-14T02:46:22.878Z,1.99
2023-04-14T02:47:32.850Z,2.10
2023-04-14T02:48:38.806Z,2.07
2023-04-14T02:51:09.132Z,2.08
2023-04-14T02:52:14.548Z,2.12
2023-04-14T02:53:24.147Z,2.15
2023-04-14T02:54:27.906Z,2.15
2023-04-14T02:55:35.300Z,2.12
2023-04-14T02:56:38.331Z,2.10
2023-04-14T02:57:43.689Z,2.03
2023-04-14T02:58:47.328Z,2.01
2023-04-14T02:59:54.535Z,2.04
2023-04-14T03:00:58.548Z,1.98
2023-04-14T03:02:06.277Z,1.95
2023-04-14T03:03:10.441Z,1.97
2023-04-14T03:04:18.390Z,1.95
2023-04-14T03:05:22.425Z,1.90
2023-04-14T03:06:32.092Z,1.89
2023-04-14T03:07:35.854Z,1.87
2023-04-14T03:08:43.353Z,1.84
2023-04-14T03:09:49.772Z,1.83
2023-04-14T03:10:57.459Z,1.82
2023-04-14T03:12:02.205Z,1.80
2023-04-14T03:13:09.971Z,1.79
2023-04-14T03:14:14.230Z,1.82
2023-04-14T03:15:21.854Z,1.81
2023-04-14T03:16:26.639Z,1.78
2023-04-14T03:17:32.881Z,1.81
2023-04-14T03:18:37.642Z,1.83
2023-04-14T03:19:43.795Z,1.77
2023-04-14T03:20:47.352Z,1.72
2023-04-14T03:21:56.294Z,1.70
2023-04-14T03:23:05.491Z,1.71
2023-04-14T03:24:14.409Z,1.71
2023-04-14T03:25:18.252Z,1.70
2023-04-14T03:26:28.948Z,1.71
2023-04-14T03:27:33.666Z,1.71
2023-04-14T03:28:41.651Z,1.70
2023-04-14T03:29:48.592Z,1.67
2023-04-14T03:30:56.472Z,1.67
2023-04-14T03:32:01.998Z,1.70
2023-04-14T03:33:12.235Z,1.66
2023-04-14T03:34:17.030Z,1.71
2023-04-14T03:35:24.054Z,1.69
2023-04-14T03:36:30.477Z,1.67
2023-04-14T03:37:40.155Z,1.64
2023-04-14T03:38:47.395Z,1.65
2023-04-14T03:39:52.837Z,1.67
2023-04-14T03:41:04.003Z,1.66
2023-04-14T03:42:11.612Z,1.62
2023-04-14T03:43:20.400Z,1.59
2023-04-14T03:44:27.796Z,1.54
2023-04-14T03:45:32.647Z,1.47
2023-04-14T03:46:38.566Z,1.44
2023-04-14T03:47:41.637Z,1.39
2023-04-14T03:48:50.682Z,1.32
2023-04-14T03:49:57.652Z,1.26
2023-04-14T03:51:05.221Z,1.18
2023-04-14T03:52:12.030Z,1.14
2023-04-14T03:54:44.709Z,1.09
2023-04-14T03:56:02.898Z,1.04
2023-04-14T03:57:11.716Z,1.02
2023-04-14T03:58:17.239Z,1.05
2023-04-14T03:59:25.093Z,1.01
2023-04-14T04:00:30.090Z,0.99
2023-04-14T04:01:37.914Z,0.94
2023-04-14T04:02:42.109Z,0.88
2023-04-14T04:03:48.890Z,0.83
2023-04-14T04:04:53.546Z,0.81
2023-04-14T04:05:59.262Z,0.78
2023-04-14T04:07:02.505Z,0.75
2023-04-14T04:08:10.183Z,0.70
2023-04-14T04:09:16.354Z,0.64
2023-04-14T04:10:25.877Z,0.58
2023-04-14T04:11:30.733Z,0.56
2023-04-14T04:12:37.230Z,0.53
2023-04-14T04:13:43.040Z,0.49
2023-04-14T04:14:48.886Z,0.46
2023-04-14T04:15:52.306Z,0.39
2023-04-14T04:17:00.094Z,0.34
2023-04-14T04:18:07.307Z,0.26
2023-04-14T04:19:14.445Z,0.20
2023-04-14T04:20:18.539Z,0.15
2023-04-14T04:21:25.084Z,0.11
2023-04-14T04:22:29.594Z,0.11
2023-04-14T04:23:38.743Z,0.22
2023-04-14T04:24:43.132Z,0.40
2023-04-14T04:25:51.748Z,0.50
2023-04-14T04:26:56.332Z,0.50
2023-04-14T04:28:03.190Z,0.51
2023-04-14T04:29:07.386Z,0.51
2023-04-14T04:30:14.917Z,0.50
2023-04-14T04:31:20.236Z,0.49
2023-04-14T04:32:27.301Z,0.58
2023-04-14T04:33:32.249Z,0.58
2023-04-14T04:34:38.690Z,0.59
2023-04-14T04:35:43.733Z,0.60
2023-04-14T04:36:50.204Z,0.53
2023-04-14T04:37:54.146Z,0.49
2023-04-14T04:39:00.659Z,0.44
2023-04-14T04:40:04.716Z,0.47
2023-04-14T04:41:24.666Z,0.55
2023-04-14T04:42:42.939Z,0.72
2023-04-14T04:44:01.825Z,0.79
2023-04-14T04:45:07.382Z,0.82
2023-04-14T04:46:29.712Z,0.87
2023-04-14T04:47:35.688Z,0.90
2023-04-14T04:50:42.287Z,0.95
2023-04-14T04:51:44.968Z,0.95
2023-04-14T04:52:50.171Z,0.99
2023-04-14T04:53:53.046Z,0.94
2023-04-14T04:54:58.218Z,0.97
2023-04-14T04:56:00.755Z,0.97
2023-04-14T04:57:08.446Z,0.95
2023-04-14T04:58:11.022Z,0.98
2023-04-14T04:59:16.528Z,0.95
2023-04-14T05:00:23.164Z,0.96
2023-04-14T05:01:28.218Z,0.96
2023-04-14T05:02:30.866Z,0.97
2023-04-14T05:03:36.119Z,0.99
2023-04-14T05:04:38.727Z,0.99
2023-04-14T05:05:43.759Z,1.00
2023-04-14T05:06:45.968Z,1.00
2023-04-14T05:07:51.005Z,1.02
2023-04-14T05:08:53.845Z,1.04
2023-04-14T05:09:58.822Z,1.08
2023-04-14T05:11:01.472Z,1.02
2023-04-14T05:12:09.124Z,0.98
2023-04-14T05:13:11.656Z,1.08
2023-04-14T05:14:16.591Z,1.05
2023-04-14T05:15:18.970Z,0.97
2023-04-14T05:16:24.207Z,0.96
2023-04-14T05:17:27.464Z,0.88
2023-04-14T05:18:32.940Z,0.90
2023-04-14T05:19:39.250Z,0.94
2023-04-14T05:20:41.534Z,0.94
2023-04-14T05:22:10.131Z,0.88
2023-04-14T05:23:13.633Z,0.88
2023-04-14T05:24:18.908Z,0.92
2023-04-14T05:25:21.680Z,0.92
2023-04-14T05:26:49.114Z,0.88
2023-04-14T05:27:51.987Z,0.91
2023-04-14T05:28:56.853Z,0.88
2023-04-14T05:29:59.095Z,0.90
2023-04-14T05:31:04.195Z,0.85
2023-04-14T05:32:06.732Z,0.86
2023-04-14T05:33:11.902Z,0.94
2023-04-14T05:34:17.504Z,1.03
2023-04-14T05:35:20.304Z,1.04
2023-04-14T05:36:25.548Z,1.07
2023-04-14T05:37:30.253Z,1.03
2023-04-14T05:38:35.202Z,1.02
2023-04-14T05:39:37.412Z,0.99
2023-04-14T05:40:42.775Z,0.99
2023-04-14T05:41:47.804Z,0.97
2023-04-14T05:42:53.251Z,0.98
2023-04-14T05:43:58.993Z,0.98
2023-04-14T05:45:01.345Z,0.96
2023-04-14T05:46:06.348Z,0.98
2023-04-14T05:47:09.174Z,1.01
2023-04-14T05:48:14.591Z,1.05
2023-04-14T05:49:19.788Z,1.10
2023-04-14T05:50:22.609Z,1.12
2023-04-14T05:51:28.029Z,1.13
2023-04-14T05:52:30.581Z,1.11
2023-04-14T05:53:35.828Z,1.13
2023-04-14T05:54:38.107Z,1.13
2023-04-14T05:55:44.305Z,1.16
2023-04-14T05:56:46.689Z,1.06
2023-04-14T05:57:54.364Z,1.11
2023-04-14T05:58:56.985Z,1.12
2023-04-14T06:00:01.757Z,1.10
2023-04-14T06:01:04.594Z,1.04
2023-04-14T06:02:09.538Z,1.06
2023-04-14T06:03:12.126Z,1.15
2023-04-14T06:04:17.762Z,1.17
2023-04-14T06:05:20.365Z,1.16
2023-04-14T06:06:26.464Z,1.20
2023-04-14T06:07:28.909Z,1.30
2023-04-14T06:08:34.310Z,1.41
2023-04-14T06:09:39.029Z,1.42
2023-04-14T06:10:44.345Z,1.48
2023-04-14T06:11:47.113Z,1.49
2023-04-14T06:12:54.889Z,1.53
2023-04-14T06:13:57.165Z,1.55
2023-04-14T06:15:03.739Z,1.58
2023-04-14T06:18:10.619Z,1.74
2023-04-14T06:19:41.632Z,1.70
2023-04-14T06:20:47.667Z,1.79
2023-04-14T06:21:50.903Z,1.84
2023-04-14T06:22:56.582Z,1.75
2023-04-14T06:24:00.465Z,1.75
2023-04-14T06:25:06.857Z,1.75
2023-04-14T06:26:13.603Z,1.82
2023-04-14T06:27:17.624Z,1.93
2023-04-14T06:28:26.747Z,2.03
2023-04-14T06:29:29.920Z,2.12
2023-04-14T06:30:35.752Z,2.20
2023-04-14T06:31:40.029Z,2.27
2023-04-14T06:32:47.368Z,2.26
2023-04-14T06:33:52.834Z,2.15
2023-04-14T06:34:57.598Z,2.31
2023-04-14T06:36:03.216Z,2.51
2023-04-14T06:37:05.967Z,2.64
2023-04-14T06:38:10.999Z,2.79
2023-04-14T06:39:14.153Z,2.70
2023-04-14T06:40:19.593Z,2.66
2023-04-14T06:41:22.164Z,2.74
2023-04-14T06:42:27.716Z,2.80
2023-04-14T06:43:33.538Z,2.54
2023-04-14T06:44:38.998Z,2.37
2023-04-14T06:45:42.180Z,2.33
2023-04-14T06:46:47.401Z,2.21
2023-04-14T06:47:50.265Z,1.99
2023-04-14T06:48:56.238Z,2.06
2023-04-14T06:51:36.739Z,2.19
2023-04-14T06:52:43.021Z,2.24
2023-04-14T06:53:48.119Z,2.34
2023-04-14T06:54:51.253Z,2.33
2023-04-14T06:55:59.652Z,2.44
2023-04-14T06:57:05.271Z,2.43
2023-04-14T06:58:08.800Z,2.52
2023-04-14T06:59:17.279Z,2.62
2023-04-14T07:00:20.405Z,2.66
2023-04-14T07:01:26.156Z,2.72
2023-04-14T07:02:29.496Z,2.80
2023-04-14T07:03:35.589Z,2.91
2023-04-14T07:04:38.731Z,3.07
2023-04-14T07:05:44.047Z,3.12
2023-04-14T07:06:46.911Z,3.12
2023-04-14T07:07:52.798Z,3.02
2023-04-14T07:08:58.456Z,3.00
2023-04-14T07:10:01.833Z,3.10
2023-04-14T07:11:09.105Z,3.10
2023-04-14T07:12:17.188Z,3.23
2023-04-14T07:13:20.369Z,3.32
2023-04-14T07:14:28.914Z,3.22
2023-04-14T07:15:31.302Z,3.34
2023-04-14T07:16:36.599Z,3.41
2023-04-14T07:17:42.806Z,3.46
2023-04-14T07:18:45.865Z,3.43
2023-04-14T07:19:51.901Z,3.56
2023-04-14T07:20:54.766Z,3.57
2023-04-14T07:22:00.464Z,3.54
2023-04-14T07:23:06.211Z,3.67
2023-04-14T07:24:09.793Z,3.86
2023-04-14T07:25:15.069Z,3.90
2023-04-14T07:26:17.768Z,4.05
2023-04-14T07:27:23.250Z,4.16
2023-04-14T07:28:27.317Z,4.19
2023-04-14T07:29:34.639Z,4.16
2023-04-14T07:30:37.067Z,4.19
2023-04-14T07:31:41.726Z,4.34
2023-04-14T07:32:46.846Z,4.45
2023-04-14T07:33:51.889Z,4.40
2023-04-14T07:34:58.338Z,4.43
2023-04-14T07:36:03.548Z,4.48
2023-04-14T07:37:08.714Z,4.52
2023-04-14T07:38:13.360Z,4.58
2023-04-14T07:39:22.406Z,4.55
2023-04-14T07:40:24.492Z,4.58
2023-04-14T07:41:29.925Z,4.62
2023-04-14T07:42:34.534Z,4.66
2023-04-14T07:43:36.602Z,4.61
2023-04-14T07:44:44.161Z,4.67
2023-04-14T07:45:46.320Z,4.72
2023-04-14T07:46:51.199Z,4.81
2023-04-14T07:47:55.286Z,4.98
2023-04-14T07:49:03.809Z,5.12
2023-04-14T07:50:10.172Z,5.24
2023-04-14T07:51:12.427Z,5.12
2023-04-14T07:52:17.198Z,5.27
2023-04-14T07:53:19.283Z,5.27
2023-04-14T07:54:23.961Z,5.34
2023-04-14T07:55:27.595Z,5.43
2023-04-14T07:56:32.361Z,5.25
2023-04-14T07:57:35.204Z,5.34
2023-04-14T07:58:40.306Z,5.46
2023-04-14T07:59:45.037Z,5.51
2023-04-14T08:00:49.683Z,5.55
2023-04-14T08:01:54.532Z,5.65
2023-04-14T08:02:56.891Z,5.74
2023-04-14T08:04:01.858Z,5.69
2023-04-14T08:05:04.437Z,5.75
2023-04-14T08:06:09.738Z,5.71
2023-04-14T08:07:12.283Z,5.84
2023-04-14T08:08:17.067Z,5.82
2023-04-14T08:09:21.733Z,5.82
2023-04-14T08:10:23.818Z,5.89
2023-04-14T08:11:28.468Z,5.95
2023-04-14T08:12:30.540Z,5.92
2023-04-14T08:13:35.194Z,6.13
2023-04-14T08:14:40.333Z,6.13
2023-04-14T08:15:44.987Z,6.11
2023-04-14T08:16:49.885Z,6.23
2023-04-14T08:17:52.358Z,6.31
2023-04-14T08:18:58.112Z,6.39
2023-04-14T08:20:00.396Z,6.38
2023-04-14T08:21:05.064Z,6.44
2023-04-14T08:22:07.201Z,6.42
2023-04-14T08:23:11.908Z,6.55
2023-04-14T08:24:16.618Z,6.39
2023-04-14T08:25:18.798Z,6.48
2023-04-14T08:26:23.942Z,6.65
2023-04-14T08:27:26.082Z,6.79
2023-04-14T08:28:31.306Z,6.78
2023-04-14T08:29:33.407Z,6.75
2023-04-14T08:30:38.231Z,6.67
2023-04-14T08:31:45.767Z,6.54
2023-04-14T08:32:47.914Z,6.67
2023-04-14T08:33:53.282Z,6.75
2023-04-14T08:35:36.325Z,6.87
2023-04-14T08:36:20.318Z,7.04
2023-04-14T08:37:23.176Z,7.00
2023-04-14T08:38:27.839Z,7.09
2023-04-14T08:39:29.962Z,7.25
2023-04-14T08:40:38.999Z,7.44
2023-04-14T08:41:45.044Z,7.47
2023-04-14T08:42:49.765Z,7.41
2023-04-14T08:43:51.839Z,7.43
2023-04-14T08:44:56.545Z,7.59
2023-04-14T08:46:02.871Z,7.69
2023-04-14T08:47:08.309Z,7.86
2023-04-14T08:48:17.555Z,7.89
2023-04-14T08:49:38.760Z,7.97
2023-04-14T08:50:51.558Z,8.02
2023-04-14T08:51:57.997Z,8.13
2023-04-14T08:53:05.997Z,8.05
2023-04-14T08:54:10.551Z,8.32
2023-04-14T08:55:16.606Z,8.39
2023-04-14T08:56:21.675Z,8.30
2023-04-14T08:57:29.135Z,8.26
2023-04-14T08:58:34.434Z,8.56
2023-04-14T08:59:40.625Z,8.81
2023-04-14T09:00:45.412Z,8.76
2023-04-14T09:01:47.937Z,9.23
2023-04-14T09:02:56.411Z,9.47
2023-04-14T09:03:59.127Z,9.85
2023-04-14T09:05:04.554Z,9.93
2023-04-14T09:06:09.276Z,10.08
2023-04-14T09:07:14.729Z,10.29
2023-04-14T09:08:17.337Z,10.73
2023-04-14T09:09:22.272Z,11.00
2023-04-14T09:10:24.874Z,11.09
2023-04-14T09:11:31.124Z,11.10
2023-04-14T09:12:34.277Z,11.19
2023-04-14T09:13:39.564Z,10.77
2023-04-14T09:14:46.688Z,10.20
2023-04-14T09:15:49.900Z,10.71
2023-04-14T09:16:56.575Z,10.84
2023-04-14T09:18:04.155Z,11.01
2023-04-14T09:19:30.867Z,11.29
2023-04-14T09:20:41.012Z,11.39
2023-04-14T09:21:52.653Z,11.43
2023-04-14T09:22:59.331Z,11.63
2023-04-14T09:24:01.941Z,11.57
2023-04-14T09:25:07.925Z,11.34
2023-04-14T09:26:13.733Z,11.91
2023-04-14T09:27:18.528Z,11.36
2023-04-14T09:28:23.354Z,11.52
2023-04-14T09:29:29.633Z,12.00
2023-04-14T09:30:34.514Z,12.18
2023-04-14T09:31:37.145Z,12.72
2023-04-14T09:32:43.242Z,13.16
2023-04-14T09:33:52.921Z,12.50
2023-04-14T09:34:58.626Z,12.70
2023-04-14T09:36:00.954Z,12.16
2023-04-14T09:37:07.654Z,12.19
2023-04-14T09:38:09.723Z,12.19
2023-04-14T09:39:20.488Z,12.42
2023-04-14T09:40:32.234Z,12.64
2023-04-14T09:41:37.200Z,12.79
2023-04-14T09:42:43.928Z,11.68
2023-04-14T09:43:46.183Z,11.95
2023-04-14T09:44:57.941Z,12.47
2023-04-14T09:46:04.909Z,12.60
2023-04-14T09:47:10.191Z,11.54
2023-04-14T09:48:13.264Z,12.09
2023-04-14T09:49:20.523Z,12.16
2023-04-14T09:50:25.266Z,11.81
2023-04-14T09:51:29.081Z,12.45
2023-04-14T09:52:41.973Z,12.88
2023-04-14T09:53:45.683Z,13.13
2023-04-14T09:54:58.039Z,13.12
2023-04-14T09:56:03.387Z,13.09
2023-04-14T09:57:08.185Z,12.43
2023-04-14T09:58:10.938Z,12.09
2023-04-14T09:59:15.703Z,11.00
2023-04-14T10:00:25.310Z,11.20
2023-04-14T10:01:31.550Z,11.13
2023-04-14T10:02:51.219Z,10.87
2023-04-14T10:03:56.148Z,10.61
2023-04-14T10:05:07.626Z,11.25
2023-04-14T10:06:19.300Z,11.28
2023-04-14T10:07:21.147Z,11.74
2023-04-14T10:08:36.220Z,12.13
2023-04-14T10:09:43.046Z,12.38
2023-04-14T10:10:45.249Z,13.17
2023-04-14T10:11:49.959Z,13.35
2023-04-14T10:12:56.565Z,14.01
2023-04-14T10:14:01.121Z,13.83
2023-04-14T10:15:06.443Z,14.42
2023-04-14T10:16:09.114Z,14.36
2023-04-14T10:17:13.980Z,13.97
2023-04-14T10:18:16.352Z,14.11
2023-04-14T10:19:22.076Z,13.50
2023-04-14T10:20:29.784Z,13.58
2023-04-14T10:21:33.413Z,12.73
2023-04-14T10:22:40.871Z,12.31
2023-04-14T10:23:44.945Z,12.49
2023-04-14T10:24:50.371Z,12.41
2023-04-14T10:25:54.737Z,12.22
2023-04-14T10:27:03.224Z,11.73
2023-04-14T10:28:08.240Z,11.78
2023-04-14T10:29:12.919Z,11.71
2023-04-14T10:30:17.846Z,11.71
2023-04-14T10:31:28.783Z,11.85
2023-04-14T10:32:41.263Z,12.27
2023-04-14T10:33:46.831Z,12.53
2023-04-14T10:35:02.568Z,12.57
2023-04-14T10:36:10.069Z,12.34
2023-04-14T10:37:16.020Z,12.57
2023-04-14T10:38:18.187Z,12.91
2023-04-14T10:39:27.802Z,12.87
2023-04-14T10:40:46.568Z,13.18
2023-04-14T10:41:52.865Z,13.37
2023-04-14T10:42:56.639Z,13.37
2023-04-14T10:44:01.408Z,13.57
2023-04-14T10:45:08.764Z,12.86
2023-04-14T10:46:11.363Z,12.38
2023-04-14T10:47:26.734Z,12.49
2023-04-14T10:48:33.540Z,11.68
2023-04-14T10:49:39.962Z,11.27
2023-04-14T10:50:47.856Z,11.51
2023-04-14T10:51:55.433Z,11.61
2023-04-14T10:53:01.094Z,11.94
2023-04-14T10:54:06.893Z,12.37
2023-04-14T10:55:10.215Z,12.65
2023-04-14T10:56:15.833Z,12.16
2023-04-14T10:57:19.422Z,12.18
2023-04-14T10:58:29.739Z,11.49
2023-04-14T10:59:32.884Z,11.99
2023-04-14T11:00:41.864Z,11.79
2023-04-14T11:01:44.104Z,11.76
2023-04-14T11:02:58.865Z,11.77
2023-04-14T11:04:20.605Z,11.78
2023-04-14T11:05:22.917Z,11.50
2023-04-14T11:06:57.424Z,11.56
2023-04-14T11:08:03.177Z,12.08
2023-04-14T11:09:23.409Z,12.14
2023-04-14T11:10:32.194Z,12.52
2023-04-14T11:11:35.301Z,12.37
2023-04-14T11:12:46.122Z,12.06
2023-04-14T11:14:16.400Z,12.29
2023-04-14T11:15:18.528Z,11.33
2023-04-14T11:16:31.762Z,11.46
2023-04-14T11:17:40.591Z,11.43
2023-04-14T11:18:46.046Z,11.34
2023-04-14T11:19:48.734Z,11.34
2023-04-14T11:20:55.544Z,11.15
2023-04-14T11:21:58.174Z,11.44
2023-04-14T11:23:03.206Z,11.54
2023-04-14T11:24:08.016Z,11.83
2023-04-14T11:25:15.043Z,11.98
2023-04-14T11:26:20.029Z,12.04
2023-04-14T11:27:22.120Z,12.10
2023-04-14T11:28:31.688Z,12.02
2023-04-14T11:29:36.345Z,11.99
2023-04-14T11:30:44.699Z,12.06
2023-04-14T11:31:47.222Z,12.23
2023-04-14T11:32:54.232Z,12.36
2023-04-14T11:33:59.074Z,12.47
2023-04-14T11:35:08.132Z,12.46
2023-04-14T11:36:14.566Z,12.38
2023-04-14T11:37:16.610Z,12.22
2023-04-14T11:38:21.302Z,12.58
2023-04-14T11:39:23.711Z,12.79
2023-04-14T11:40:30.187Z,13.02
2023-04-14T11:41:33.054Z,13.01
2023-04-14T11:42:37.933Z,13.20
2023-04-14T11:43:47.278Z,13.49
2023-04-14T11:45:00.383Z,13.52
2023-04-14T11:46:08.774Z,13.96
2023-04-14T11:47:13.657Z,14.26
2023-04-14T11:48:16.970Z,14.94
2023-04-14T11:49:22.258Z,15.52
2023-04-14T11:50:24.670Z,16.20
2023-04-14T11:51:33.869Z,16.47
2023-04-14T11:52:35.948Z,17.15
2023-04-14T11:53:40.795Z,17.33
2023-04-14T11:54:43.196Z,16.76
2023-04-14T11:55:49.971Z,17.03
2023-04-14T11:56:52.200Z,15.40
2023-04-14T11:58:07.609Z,16.02
2023-04-14T11:59:10.219Z,15.95
2023-04-14T12:00:18.099Z,15.17
2023-04-14T12:01:25.572Z,14.87
2023-04-14T12:02:28.017Z,15.07
2023-04-14T12:03:35.826Z,15.12
2023-04-14T12:04:38.315Z,14.75
2023-04-14T12:05:43.456Z,14.80
2023-04-14T12:06:45.675Z,14.08
2023-04-14T12:07:51.596Z,13.55
2023-04-14T12:08:54.642Z,13.41
2023-04-14T12:09:59.402Z,13.28
2023-04-14T12:11:13.376Z,13.73
2023-04-14T12:12:20.374Z,13.85
2023-04-14T12:13:25.093Z,13.58
2023-04-14T12:14:33.586Z,13.84
2023-04-14T12:15:45.198Z,13.91
2023-04-14T12:16:50.627Z,14.06
2023-04-14T12:17:55.827Z,14.24
2023-04-14T12:19:02.032Z,14.62
2023-04-14T12:20:07.955Z,14.80
2023-04-14T12:21:13.075Z,14.90
2023-04-14T12:22:25.611Z,15.01
2023-04-14T12:23:30.298Z,15.05
2023-04-14T12:24:36.473Z,15.04
2023-04-14T12:25:41.769Z,15.09
2023-04-14T12:26:46.643Z,15.01
2023-04-14T12:27:54.013Z,15.04
2023-04-14T12:29:02.850Z,14.93
2023-04-14T12:30:09.914Z,14.71
2023-04-14T12:31:17.446Z,14.77
2023-04-14T12:32:21.578Z,14.72
2023-04-14T12:33:26.846Z,14.33
2023-04-14T12:34:32.662Z,14.31
2023-04-14T12:35:55.183Z,13.98
2023-04-14T12:36:57.756Z,13.64
2023-04-14T12:38:02.581Z,13.28
2023-04-14T12:39:05.617Z,13.20
2023-04-14T12:40:12.572Z,13.16
2023-04-14T12:41:24.801Z,12.54
2023-04-14T12:42:30.553Z,12.56
2023-04-14T12:43:36.981Z,12.23
2023-04-14T12:44:39.030Z,12.14
2023-04-14T12:45:44.926Z,11.70
2023-04-14T12:46:51.533Z,11.80
2023-04-14T12:48:00.323Z,11.91
2023-04-14T12:49:03.062Z,12.13
2023-04-14T12:50:28.299Z,11.88
2023-04-14T12:51:41.888Z,11.52
2023-04-14T12:52:44.782Z,11.80
2023-04-14T12:53:55.330Z,11.85
2023-04-14T12:54:57.474Z,12.03
2023-04-14T12:56:09.828Z,12.06
2023-04-14T12:57:12.618Z,12.93
2023-04-14T12:58:17.236Z,13.45
2023-04-14T12:59:22.374Z,14.12
2023-04-14T13:00:27.381Z,15.16
2023-04-14T13:01:32.137Z,15.56
2023-04-14T13:02:37.556Z,15.92
2023-04-14T13:03:47.788Z,15.04
2023-04-14T13:04:50.652Z,15.50
2023-04-14T13:05:56.730Z,15.33
2023-04-14T13:06:58.813Z,14.03
2023-04-14T13:08:03.468Z,14.33
2023-04-14T13:09:17.413Z,14.09
2023-04-14T13:10:19.540Z,13.74
2023-04-14T13:11:26.529Z,13.45
2023-04-14T13:12:28.583Z,13.32
2023-04-14T13:13:33.195Z,13.48
2023-04-14T13:14:35.260Z,13.69
2023-04-14T13:16:15.260Z,13.71
2023-04-14T13:17:08.831Z,13.28
2023-04-14T13:18:16.139Z,13.03
2023-04-14T13:19:18.193Z,12.74
2023-04-14T13:20:22.772Z,12.58
2023-04-14T13:21:27.433Z,12.60
2023-04-14T13:22:32.053Z,12.92
2023-04-14T13:23:34.182Z,13.32
2023-04-14T13:24:39.163Z,13.67
2023-04-14T13:26:10.645Z,14.48
2023-04-14T13:27:15.783Z,15.96
2023-04-14T13:28:17.915Z,17.26
2023-04-14T13:29:22.551Z,17.13
2023-04-14T13:30:24.579Z,17.50
2023-04-14T13:31:29.322Z,18.08
2023-04-14T13:32:33.977Z,18.81
2023-04-14T13:33:41.249Z,19.76
2023-04-14T13:34:45.927Z,20.34
2023-04-14T13:35:48.325Z,21.45
2023-04-14T13:36:52.991Z,21.99
2023-04-14T13:37:54.981Z,22.70
2023-04-14T13:39:00.447Z,22.98
2023-04-14T13:40:08.325Z,23.46
2023-04-14T13:41:10.875Z,21.43
2023-04-14T13:42:15.529Z,21.86
2023-04-14T13:43:18.739Z,21.16
2023-04-14T13:44:23.682Z,20.48
2023-04-14T13:45:25.816Z,20.03
2023-04-14T13:46:36.200Z,19.11
2023-04-14T13:47:45.121Z,18.35
2023-04-14T13:48:54.084Z,16.42
2023-04-14T13:49:56.163Z,16.01
2023-04-14T13:51:02.049Z,15.60
2023-04-14T13:52:04.101Z,15.14
2023-04-14T13:53:09.182Z,14.74
2023-04-14T13:54:14.165Z,14.54
2023-04-14T13:55:16.219Z,14.28
2023-04-14T13:56:33.550Z,13.98
2023-04-14T13:57:38.456Z,13.66
2023-04-14T13:58:40.473Z,13.20
2023-04-14T13:59:45.077Z,13.04
2023-04-14T14:00:47.092Z,12.82
2023-04-14T14:01:51.806Z,12.74
2023-04-14T14:02:56.966Z,12.72
2023-04-14T14:04:04.731Z,12.61
2023-04-14T14:05:07.993Z,12.47
2023-04-14T14:06:12.631Z,12.42
2023-04-14T14:07:14.696Z,12.14
2023-04-14T14:08:19.404Z,12.19
2023-04-14T14:09:21.397Z,12.28
2023-04-14T14:10:26.382Z,12.35
2023-04-14T14:11:28.616Z,12.39
2023-04-14T14:12:35.151Z,12.41
2023-04-14T14:13:41.338Z,12.40
2023-04-14T14:14:43.472Z,12.39
2023-04-14T14:15:48.742Z,12.47
2023-04-14T14:16:51.402Z,12.49
2023-04-14T14:17:56.158Z,12.49
2023-04-14T14:18:58.221Z,12.47
2023-04-14T14:20:05.924Z,12.53
2023-04-14T14:21:07.986Z,12.49
2023-04-14T14:22:12.653Z,12.48
2023-04-14T14:23:17.385Z,12.44
2023-04-14T14:24:19.445Z,12.44
2023-04-14T14:25:26.921Z,12.30
2023-04-14T14:26:28.989Z,12.12
2023-04-14T14:27:34.089Z,12.13
2023-04-14T14:28:36.221Z,12.07
2023-04-14T14:29:40.854Z,12.08
2023-04-14T14:30:43.015Z,12.11
2023-04-14T14:31:47.786Z,12.06
2023-04-14T14:32:50.692Z,12.03
2023-04-14T14:33:55.470Z,12.05
2023-04-14T14:34:57.501Z,11.99
2023-04-14T14:36:05.118Z,11.92
2023-04-14T14:37:07.223Z,11.96
2023-04-14T14:38:11.872Z,11.94
2023-04-14T14:39:14.164Z,11.80
2023-04-14T14:40:18.788Z,11.82
2023-04-14T14:41:20.808Z,11.90
2023-04-14T14:42:31.390Z,11.86
2023-04-14T14:43:36.357Z,11.90
2023-04-14T14:44:38.610Z,11.86
2023-04-14T14:45:43.338Z,11.93
2023-04-14T14:46:46.245Z,11.95